Open Full Screen Window  High Contrast Mode
September 25, 2017 5:34 AM EDT
Weather Information
Wind Direction
  ---
Wind Speed
  00 kt (0 mph)
Wind Gust
  00 kt (0 mph)
Altimeter
30.06 in
Visibility
10 SM
Temperature
16° C
61° F
Dewpoint
15° C
59° F
Humidity
94%
1hr Rain Fall
00.00 in.
24hr Rain Fall
00.00 in.
Sky Condition
Clear
VFR

METAR KMRT 250934Z AUTO 00000KT 10SM CLR 16/15 A3006 RMK AO2 T01600150

*Background is not an actual portrayal of the airport.